Time;durP1;ratioP1;P1;durP2;ratioP2;P2;SDS_P1;SDS_P2;PMS_P1;PMS_P2;Temp;Humidity;BMP_temperature;BMP_pressure;BME280_temperature;BME280_humidity;BME280_pressure;Samples;Min_cycle;Max_cycle;Signal;HPM_P1;HPM_P2
2021/09/18 00:01:31;;;;;;;3.42;1.83;;;;;;;12.66;71.70;99788.91;4990243;28;106099;-65
2021/09/18 00:03:56;;;;;;;2.67;1.73;;;;;;;12.62;71.53;99784.97;4989792;28;106185;-66
2021/09/18 00:06:22;;;;;;;2.42;1.58;;;;;;;12.61;72.06;99791.34;4990823;28;105910;-66
2021/09/18 00:08:47;;;;;;;3.78;1.77;;;;;;;12.56;71.68;99786.59;4989814;28;105906;-66
2021/09/18 00:11:12;;;;;;;4.03;2.08;;;;;;;12.51;71.98;99784.47;4987771;28;105946;-67
2021/09/18 00:13:38;;;;;;;4.00;2.92;;;;;;;12.48;71.71;99794.69;4989572;28;106152;-66
2021/09/18 00:16:04;;;;;;;2.17;1.55;;;;;;;12.47;72.19;99801.09;4990657;28;105821;-66
2021/09/18 00:18:29;;;;;;;2.90;2.08;;;;;;;12.49;72.24;99799.03;4989920;28;106255;-65
2021/09/18 00:20:55;;;;;;;2.83;2.00;;;;;;;12.51;72.42;99794.34;4989767;28;105851;-67
2021/09/18 00:23:21;;;;;;;3.22;1.77;;;;;;;12.54;72.45;99796.63;4989582;28;105991;-66
2021/09/18 00:25:46;;;;;;;2.95;2.00;;;;;;;12.57;72.82;99792.75;4990731;28;105891;-65
2021/09/18 00:28:12;;;;;;;3.38;2.05;;;;;;;12.59;72.53;99798.69;4989797;28;106174;-67
2021/09/18 00:30:39;;;;;;;3.25;1.80;;;;;;;12.60;72.63;99793.19;4989425;28;106033;-68
2021/09/18 00:33:05;;;;;;;2.88;1.77;;;;;;;12.58;72.77;99795.22;4988905;28;105937;-67
2021/09/18 00:35:30;;;;;;;2.92;1.80;;;;;;;12.57;72.48;99790.06;4989351;28;105994;-66
2021/09/18 00:37:55;;;;;;;2.70;1.60;;;;;;;12.55;72.51;99781.41;4989817;28;106212;-67
2021/09/18 00:40:21;;;;;;;2.03;1.67;;;;;;;12.51;72.86;99789.81;4988924;28;111715;-66
2021/09/18 00:42:46;;;;;;;2.95;1.80;;;;;;;12.47;72.59;99785.06;4989260;28;105996;-66
2021/09/18 00:45:12;;;;;;;4.25;1.88;;;;;;;12.46;72.78;99789.56;4989987;28;106088;-66
2021/09/18 00:47:38;;;;;;;4.40;2.10;;;;;;;12.44;72.98;99788.94;4988300;28;105800;-66
2021/09/18 00:50:04;;;;;;;5.45;1.90;;;;;;;12.47;72.72;99782.38;4988970;28;106661;-66
2021/09/18 00:52:30;;;;;;;3.38;1.80;;;;;;;12.49;73.08;99789.19;4989150;28;105903;-66
2021/09/18 00:54:55;;;;;;;1.80;1.60;;;;;;;12.50;73.38;99785.47;4990167;28;105914;-66
2021/09/18 00:57:21;;;;;;;7.60;2.00;;;;;;;12.50;72.74;99792.69;4989406;28;106064;-66
2021/09/18 00:59:46;;;;;;;3.33;1.85;;;;;;;12.52;73.58;99795.97;4989278;28;106133;-65
2021/09/18 01:02:12;;;;;;;4.20;1.95;;;;;;;12.52;73.09;99794.16;4988801;28;106459;-66
2021/09/18 01:04:38;;;;;;;4.45;2.08;;;;;;;12.53;73.33;99789.63;4989694;28;106131;-66
2021/09/18 01:07:05;;;;;;;2.08;1.67;;;;;;;12.54;73.63;99788.59;4987587;28;106279;-66
2021/09/18 01:09:32;;;;;;;4.95;2.13;;;;;;;12.53;73.48;99795.81;4988977;28;106052;-65
2021/09/18 01:11:58;;;;;;;3.20;1.90;;;;;;;12.53;73.19;99785.13;4988616;28;105806;-66
2021/09/18 01:14:24;;;;;;;4.68;2.30;;;;;;;12.56;73.57;99788.41;4989768;28;106020;-65
2021/09/18 01:16:49;;;;;;;2.63;1.92;;;;;;;12.57;73.56;99787.41;4989095;28;106161;-66
2021/09/18 01:19:15;;;;;;;3.78;1.92;;;;;;;12.59;73.60;99796.03;4988874;28;105770;-65
2021/09/18 01:21:40;;;;;;;4.15;2.25;;;;;;;12.60;73.54;99784.31;4988687;28;105823;-66
2021/09/18 01:24:05;;;;;;;3.78;2.13;;;;;;;12.61;73.41;99789.47;4989688;28;105858;-66
2021/09/18 01:26:38;;;;;;;2.25;1.88;;;;;;;12.61;73.59;99792.16;4989198;28;106185;-66
2021/09/18 01:29:05;;;;;;;3.15;2.08;;;;;;;12.63;73.73;99789.28;4988269;28;106310;-66
2021/09/18 01:31:37;;;;;;;2.53;1.90;;;;;;;12.63;73.41;99794.63;4988538;28;106147;-66
2021/09/18 01:34:02;;;;;;;3.05;1.95;;;;;;;12.62;73.38;99788.47;4989452;28;105928;-66
2021/09/18 01:36:27;;;;;;;6.10;2.00;;;;;;;12.62;73.82;99779.63;4988997;28;106100;-66
2021/09/18 01:38:53;;;;;;;5.07;2.10;;;;;;;12.63;73.41;99775.91;4988678;28;105947;-66
2021/09/18 01:41:18;;;;;;;2.80;1.83;;;;;;;12.64;73.64;99774.91;4988597;28;106222;-66
2021/09/18 01:43:44;;;;;;;2.45;1.80;;;;;;;12.63;73.39;99783.94;4989234;28;106089;-66
2021/09/18 01:46:09;;;;;;;3.03;1.90;;;;;;;12.62;73.33;99785.78;4988396;28;106131;-66
2021/09/18 01:48:34;;;;;;;3.22;2.00;;;;;;;12.62;73.46;99784.97;4988271;28;108127;-66
2021/09/18 01:51:01;;;;;;;2.50;1.83;;;;;;;12.61;73.65;99780.63;4988086;28;105847;-65
2021/09/18 01:53:29;;;;;;;3.35;2.78;;;;;;;12.61;73.26;99786.81;4988974;28;105845;-65
2021/09/18 01:55:55;;;;;;;2.47;1.95;;;;;;;12.62;73.72;99779.63;4988635;28;106172;-65
2021/09/18 01:58:21;;;;;;;2.90;1.80;;;;;;;12.61;73.42;99775.31;4988338;28;106015;-66
2021/09/18 02:01:00;;;;;;;3.42;3.13;;;;;;;12.60;73.75;99774.47;4988149;28;106020;-64
2021/09/18 02:03:26;;;;;;;2.63;2.28;;;;;;;12.60;73.78;99777.16;4988877;28;105745;-67
2021/09/18 02:05:51;;;;;;;3.03;2.10;;;;;;;12.59;73.58;99783.50;4988313;28;106253;-66
2021/09/18 02:08:17;;;;;;;3.05;1.70;;;;;;;12.59;73.54;99777.31;4988277;28;106571;-66
2021/09/18 02:10:42;;;;;;;2.72;1.73;;;;;;;12.57;73.21;99777.53;4987527;28;105997;-66
2021/09/18 02:13:09;;;;;;;3.85;2.05;;;;;;;12.56;73.18;99783.06;4988933;28;105865;-66
2021/09/18 02:15:35;;;;;;;2.97;2.03;;;;;;;12.51;73.21;99771.09;4988311;28;106095;-66
2021/09/18 02:18:01;;;;;;;3.00;2.05;;;;;;;12.50;73.30;99771.31;4988045;28;106722;-65
2021/09/18 02:20:29;;;;;;;2.92;2.25;;;;;;;12.47;73.80;99769.84;4988160;28;105873;-66
2021/09/18 02:22:56;;;;;;;3.42;2.22;;;;;;;12.47;73.40;99767.16;4989063;28;105817;-63
2021/09/18 02:25:21;;;;;;;3.85;2.20;;;;;;;12.44;73.31;99764.91;4988331;28;106164;-65
2021/09/18 02:27:47;;;;;;;2.45;1.92;;;;;;;12.44;73.29;99774.72;4988447;28;106445;-66
2021/09/18 02:30:28;;;;;;;3.80;2.20;;;;;;;12.43;73.35;99775.78;4987140;28;106464;-66
2021/09/18 02:32:53;;;;;;;;;;;;;;;12.42;73.80;99780.28;4989187;28;105921;-66
2021/09/18 02:35:21;;;;;;;3.47;1.77;;;;;;;12.40;73.43;99768.13;4987994;28;105770;-64
2021/09/18 02:37:47;;;;;;;2.60;1.77;;;;;;;12.39;73.30;99766.50;4987395;28;107199;-66
2021/09/18 02:40:15;;;;;;;3.05;2.28;;;;;;;12.37;73.67;99769.38;4987659;28;106114;-66
2021/09/18 02:42:44;;;;;;;2.67;2.10;;;;;;;12.33;73.19;99771.56;4988160;28;106088;-65
2021/09/18 02:45:10;;;;;;;4.85;2.33;;;;;;;12.33;73.27;99770.75;4987915;28;106153;-66
2021/09/18 02:47:36;;;;;;;2.58;2.13;;;;;;;12.30;73.90;99765.78;4987313;28;106655;-66
2021/09/18 02:50:03;;;;;;;3.53;2.42;;;;;;;12.28;73.51;99770.50;4987186;28;107888;-66
2021/09/18 02:52:28;;;;;;;3.60;2.17;;;;;;;12.27;73.79;99771.53;4988240;28;106326;-65
2021/09/18 02:54:54;;;;;;;2.90;2.25;;;;;;;12.23;73.64;99763.06;4987880;28;105879;-66
2021/09/18 02:57:19;;;;;;;4.47;2.55;;;;;;;12.24;73.84;99767.38;4988454;28;105984;-66
2021/09/18 02:59:44;;;;;;;3.60;2.40;;;;;;;12.24;73.47;99763.91;4990889;28;105869;-65
2021/09/18 03:02:10;;;;;;;4.43;2.15;;;;;;;12.22;73.76;99763.25;4991717;28;105841;-66
2021/09/18 03:04:35;;;;;;;3.42;2.35;;;;;;;12.21;73.39;99759.75;4991041;28;105926;-66
2021/09/18 03:07:00;;;;;;;4.32;2.60;;;;;;;12.18;73.99;99755.63;4990700;28;105971;-66
2021/09/18 03:09:26;;;;;;;3.75;2.30;;;;;;;12.18;73.90;99760.97;4990634;28;105924;-66
2021/09/18 03:11:51;;;;;;;4.40;2.13;;;;;;;12.19;74.05;99761.78;4991308;28;105944;-66
2021/09/18 03:14:17;;;;;;;2.95;2.00;;;;;;;12.19;73.66;99762.63;4990466;28;106227;-66
2021/09/18 03:16:43;;;;;;;2.67;2.13;;;;;;;12.19;74.12;99756.44;4990780;28;106235;-66
2021/09/18 03:19:08;;;;;;;5.85;2.42;;;;;;;12.16;73.86;99762.16;4990038;28;106033;-65
2021/09/18 03:21:33;;;;;;;3.42;2.30;;;;;;;12.15;73.83;99755.16;4991404;28;105991;-66
2021/09/18 03:23:59;;;;;;;3.45;2.47;;;;;;;12.15;73.76;99755.16;4990459;28;105930;-65
2021/09/18 03:26:24;;;;;;;3.90;2.53;;;;;;;12.14;73.95;99759.69;4990287;28;106030;-66
2021/09/18 03:28:50;;;;;;;5.30;2.60;;;;;;;12.14;74.01;99754.34;4990475;28;106074;-65
2021/09/18 03:31:17;;;;;;;2.85;2.20;;;;;;;12.13;74.34;99752.69;4991056;28;105903;-66
2021/09/18 03:33:43;;;;;;;4.05;2.33;;;;;;;12.14;73.79;99757.03;4990396;28;106232;-66
2021/09/18 03:36:08;;;;;;;3.95;2.72;;;;;;;12.14;74.14;99759.69;4989584;28;106334;-66
2021/09/18 03:38:34;;;;;;;3.65;2.60;;;;;;;12.14;73.93;99757.03;4989604;28;105883;-66
2021/09/18 03:40:59;;;;;;;3.88;2.33;;;;;;;12.15;74.24;99756.03;4990992;28;106020;-66
2021/09/18 03:43:24;;;;;;;3.13;2.50;;;;;;;12.16;74.50;99760.31;4990455;28;106274;-66
2021/09/18 03:45:51;;;;;;;5.28;2.45;;;;;;;12.15;74.11;99760.50;4989857;28;105901;-66
2021/09/18 03:48:17;;;;;;;4.00;2.72;;;;;;;12.16;74.52;99762.16;4989604;28;105998;-66
2021/09/18 03:50:42;;;;;;;4.57;2.30;;;;;;;12.16;74.63;99760.31;4990650;28;106197;-66
2021/09/18 03:53:07;;;;;;;2.80;2.38;;;;;;;12.15;74.27;99756.03;4990335;28;106251;-66
2021/09/18 03:55:33;;;;;;;3.78;2.20;;;;;;;12.13;74.31;99765.22;4990016;28;105861;-66
2021/09/18 03:57:58;;;;;;;2.50;2.25;;;;;;;12.12;74.11;99759.03;4989709;28;105988;-66
2021/09/18 04:00:23;;;;;;;5.00;2.40;;;;;;;12.12;74.03;99760.91;4990725;28;106242;-66
2021/09/18 04:02:48;;;;;;;3.95;2.00;;;;;;;12.13;74.22;99760.72;4989957;28;106102;-66
2021/09/18 04:05:14;;;;;;;2.95;2.00;;;;;;;12.12;74.48;99761.72;4989537;28;117711;-66
2021/09/18 04:07:39;;;;;;;2.10;1.80;;;;;;;12.11;74.03;99759.25;4989788;28;105969;-66
2021/09/18 04:10:05;;;;;;;2.50;1.90;;;;;;;12.12;74.57;99767.06;4990462;28;106033;-64
2021/09/18 04:12:31;;;;;;;3.33;2.25;;;;;;;12.14;74.30;99766.88;4989649;28;106183;-67
2021/09/18 04:14:57;;;;;;;3.80;2.17;;;;;;;12.14;74.24;99765.03;4989758;28;105749;-66
2021/09/18 04:17:22;;;;;;;2.70;1.90;;;;;;;12.15;74.26;99761.34;4989285;28;109860;-64
2021/09/18 04:19:47;;;;;;;4.28;2.20;;;;;;;12.17;74.41;99770.00;4990295;28;106004;-65
2021/09/18 04:22:13;;;;;;;3.67;2.25;;;;;;;12.20;74.09;99768.78;4989936;28;106145;-64
2021/09/18 04:24:38;;;;;;;2.53;2.08;;;;;;;12.19;74.60;99765.28;4988806;28;106024;-64
2021/09/18 04:27:04;;;;;;;2.80;1.98;;;;;;;12.22;74.02;99760.56;4989411;28;105985;-64
2021/09/18 04:29:31;;;;;;;2.85;2.20;;;;;;;12.22;74.15;99758.75;4990018;28;106007;-64
2021/09/18 04:31:56;;;;;;;3.30;2.15;;;;;;;12.22;74.49;99756.09;4996136;28;106397;-66
2021/09/18 04:34:21;;;;;;;3.40;2.28;;;;;;;12.23;74.04;99756.91;5008773;28;105905;-66
2021/09/18 04:36:47;;;;;;;4.70;2.58;;;;;;;12.24;74.05;99767.38;5008574;28;106306;-65
2021/09/18 04:39:13;;;;;;;4.65;2.40;;;;;;;12.24;74.36;99762.03;4993568;28;106050;-66
2021/09/18 04:41:38;;;;;;;4.05;2.10;;;;;;;12.25;74.18;99765.56;4989291;28;106045;-65
2021/09/18 04:44:04;;;;;;;3.30;2.03;;;;;;;12.27;74.02;99771.53;4989114;28;105717;-65
2021/09/18 04:46:29;;;;;;;3.40;2.40;;;;;;;12.28;73.95;99765.16;4989011;28;105909;-66
2021/09/18 04:48:55;;;;;;;2.70;2.30;;;;;;;12.29;74.28;99769.50;4989484;28;106276;-65
2021/09/18 04:51:20;;;;;;;3.88;2.20;;;;;;;12.29;73.92;99769.50;4988871;28;106525;-66
2021/09/18 04:53:45;;;;;;;2.92;2.30;;;;;;;12.31;74.21;99775.47;4989081;28;105970;-65
2021/09/18 04:56:11;;;;;;;2.92;2.10;;;;;;;12.32;73.92;99774.44;4988614;28;105834;-65
2021/09/18 04:58:36;;;;;;;3.50;2.47;;;;;;;12.33;74.27;99768.91;4989861;28;106098;-65
2021/09/18 05:01:02;;;;;;;8.57;4.43;;;;;;;12.34;74.08;99772.41;4988847;28;105984;-66
2021/09/18 05:03:27;;;;;;;5.85;4.03;;;;;;;12.37;74.21;99769.38;4988824;28;106382;-65
2021/09/18 05:05:52;;;;;;;4.38;3.30;;;;;;;12.38;74.46;99768.31;4988537;28;106886;-65
2021/09/18 05:08:17;;;;;;;3.45;2.40;;;;;;;12.39;73.69;99759.28;4989616;28;106132;-66
2021/09/18 05:10:43;;;;;;;4.20;2.80;;;;;;;12.39;73.54;99766.50;4988980;28;106307;-65
2021/09/18 05:13:08;;;;;;;6.53;2.92;;;;;;;12.39;73.93;99769.97;4988031;28;106621;-65
2021/09/18 05:15:34;;;;;;;4.28;2.75;;;;;;;12.41;73.81;99773.31;4988141;28;106086;-65
2021/09/18 05:17:59;;;;;;;5.78;2.88;;;;;;;12.43;73.74;99773.91;4989145;28;105897;-66
2021/09/18 05:20:25;;;;;;;3.50;2.83;;;;;;;12.48;73.79;99781.34;4988182;28;106226;-65
2021/09/18 05:22:50;;;;;;;3.78;2.97;;;;;;;12.51;74.10;99791.66;4988064;28;106048;-65
2021/09/18 05:25:15;;;;;;;7.25;3.05;;;;;;;12.57;73.84;99784.72;4988201;28;105937;-66
2021/09/18 05:27:41;;;;;;;7.03;3.03;;;;;;;12.65;73.99;99782.72;4988396;28;107574;-66
2021/09/18 05:30:08;;;;;;;7.78;2.85;;;;;;;12.73;73.75;99787.09;4988435;28;106590;-65
2021/09/18 05:32:34;;;;;;;2.80;2.28;;;;;;;12.80;73.88;99771.94;4986703;28;108042;-67
